createdAt,value
2022-10-28T00:01:33.593Z,6.55
2022-10-28T00:04:02.979Z,7.05
2022-10-28T00:06:34.900Z,5.28
2022-10-28T00:09:08.339Z,3.75
2022-10-28T00:11:40.090Z,5.90
2022-10-28T00:14:10.559Z,6.78
2022-10-28T00:16:39.486Z,6.00
2022-10-28T00:19:11.172Z,7.95
2022-10-28T00:21:42.063Z,7.55
2022-10-28T00:24:12.578Z,9.45
2022-10-28T00:26:43.288Z,4.63
2022-10-28T00:29:15.896Z,3.55
2022-10-28T00:31:45.569Z,7.22
2022-10-28T00:34:17.512Z,5.35
2022-10-28T00:36:49.419Z,3.50
2022-10-28T00:39:20.638Z,3.88
2022-10-28T00:41:58.014Z,4.95
2022-10-28T00:45:03.398Z,3.13
2022-10-28T00:47:53.183Z,5.40
2022-10-28T00:50:44.479Z,5.38
2022-10-28T00:53:22.691Z,5.47
2022-10-28T00:55:52.620Z,6.82
2022-10-28T00:58:26.586Z,3.22
2022-10-28T01:00:55.854Z,5.05
2022-10-28T01:03:24.596Z,5.65
2022-10-28T01:05:54.253Z,4.60
2022-10-28T01:08:23.071Z,6.50
2022-10-28T01:11:21.279Z,4.95
2022-10-28T01:14:08.388Z,4.43
2022-10-28T01:19:34.002Z,8.25
2022-10-28T01:22:07.053Z,6.90
2022-10-28T01:24:46.221Z,3.30
2022-10-28T01:27:40.291Z,5.13
2022-10-28T01:30:15.980Z,5.15
2022-10-28T01:33:03.297Z,4.85
2022-10-28T01:35:54.205Z,4.72
2022-10-28T01:38:42.987Z,5.35
2022-10-28T01:41:20.678Z,3.70
2022-10-28T01:44:08.076Z,6.00
2022-10-28T01:46:56.931Z,4.05
2022-10-28T01:49:50.636Z,5.63
2022-10-28T01:52:25.354Z,7.68
2022-10-28T01:55:02.495Z,5.20
2022-10-28T01:57:34.405Z,4.53
2022-10-28T02:00:03.708Z,5.88
2022-10-28T02:02:41.937Z,5.00
2022-10-28T02:05:46.339Z,2.75
2022-10-28T02:08:21.616Z,4.80
2022-10-28T02:11:03.701Z,7.28
2022-10-28T02:14:07.671Z,5.07
2022-10-28T02:16:54.397Z,5.20
2022-10-28T02:20:06.272Z,3.78
2022-10-28T02:22:55.920Z,6.47
2022-10-28T02:25:32.475Z,5.53
2022-10-28T02:31:04.197Z,8.95
2022-10-28T02:33:38.819Z,6.40
2022-10-28T02:36:10.085Z,6.25
2022-10-28T02:38:44.489Z,4.63
2022-10-28T02:41:20.536Z,4.60
2022-10-28T02:43:54.283Z,5.53
2022-10-28T02:46:25.800Z,5.22
2022-10-28T02:48:58.087Z,3.70
2022-10-28T02:51:36.331Z,5.00
2022-10-28T02:54:28.581Z,5.28
2022-10-28T02:57:00.864Z,5.68
2022-10-28T02:59:30.270Z,5.38
2022-10-28T03:01:59.072Z,6.32
2022-10-28T03:04:28.076Z,4.75
2022-10-28T03:06:56.657Z,4.05
2022-10-28T03:09:25.411Z,5.07
2022-10-28T03:11:54.121Z,6.05
2022-10-28T03:14:22.750Z,6.13
2022-10-28T03:16:51.423Z,5.35
2022-10-28T03:19:20.204Z,3.30
2022-10-28T03:21:48.819Z,6.97
2022-10-28T03:24:17.613Z,6.63
2022-10-28T03:26:46.338Z,3.60
2022-10-28T03:29:15.227Z,7.20
2022-10-28T03:31:43.851Z,5.40
2022-10-28T03:34:12.618Z,7.60
2022-10-28T03:36:41.613Z,5.53
2022-10-28T03:39:10.389Z,4.30
2022-10-28T03:41:39.085Z,6.70
2022-10-28T03:44:08.092Z,8.00
2022-10-28T03:46:37.297Z,5.70
2022-10-28T03:49:06.104Z,5.55
2022-10-28T03:51:34.763Z,6.07
2022-10-28T03:54:03.677Z,4.88
2022-10-28T03:56:32.552Z,7.20
2022-10-28T03:59:01.267Z,5.47
2022-10-28T04:01:29.974Z,5.70
2022-10-28T04:03:58.911Z,8.20
2022-10-28T04:06:27.539Z,8.75
2022-10-28T04:08:56.222Z,9.82
2022-10-28T04:11:24.899Z,4.40
2022-10-28T04:13:53.546Z,5.63
2022-10-28T04:16:22.199Z,3.72
2022-10-28T04:18:50.983Z,7.10
2022-10-28T04:21:19.823Z,4.47
2022-10-28T04:23:49.098Z,5.85
2022-10-28T04:26:17.856Z,6.53
2022-10-28T04:28:46.890Z,6.53
2022-10-28T04:31:15.753Z,4.78
2022-10-28T04:33:44.581Z,6.15
2022-10-28T04:36:13.211Z,7.53
2022-10-28T04:38:42.318Z,4.65
2022-10-28T04:41:15.336Z,7.28
2022-10-28T04:43:44.090Z,7.15
2022-10-28T04:46:12.783Z,9.85
2022-10-28T04:48:41.941Z,6.72
2022-10-28T04:51:10.599Z,3.35
2022-10-28T04:53:39.282Z,4.55
2022-10-28T04:56:08.288Z,3.88
2022-10-28T04:58:37.055Z,6.85
2022-10-28T05:01:10.887Z,10.70
2022-10-28T05:03:39.598Z,9.68
2022-10-28T05:06:08.319Z,5.95
2022-10-28T05:08:37.007Z,4.00
2022-10-28T05:11:05.750Z,9.60
2022-10-28T05:13:34.549Z,10.98
2022-10-28T05:16:04.728Z,5.35
2022-10-28T05:18:33.561Z,7.65
2022-10-28T05:21:03.703Z,11.98
2022-10-28T05:23:32.569Z,14.02
2022-10-28T05:26:01.187Z,14.10
2022-10-28T05:28:29.935Z,14.50
2022-10-28T05:30:58.663Z,10.23
2022-10-28T05:33:27.423Z,7.18
2022-10-28T05:35:56.195Z,8.60
2022-10-28T05:38:24.881Z,6.75
2022-10-28T05:40:54.324Z,5.50
2022-10-28T05:43:23.026Z,8.05
2022-10-28T05:45:58.719Z,8.07
2022-10-28T05:48:27.458Z,10.27
2022-10-28T05:50:56.065Z,6.63
2022-10-28T05:53:24.856Z,4.82
2022-10-28T05:55:53.452Z,6.82
2022-10-28T05:58:22.177Z,5.95
2022-10-28T06:00:50.910Z,7.03
2022-10-28T06:03:19.679Z,5.85
2022-10-28T06:05:48.464Z,6.57
2022-10-28T06:08:17.257Z,7.43
2022-10-28T06:10:54.028Z,6.10
2022-10-28T06:13:23.003Z,8.63
2022-10-28T06:15:56.125Z,4.93
2022-10-28T06:18:25.167Z,5.13
2022-10-28T06:20:58.338Z,7.10
2022-10-28T06:23:28.501Z,5.78
2022-10-28T06:26:03.776Z,8.70
2022-10-28T06:28:32.732Z,6.03
2022-10-28T06:31:06.274Z,19.08
2022-10-28T06:33:36.331Z,25.60
2022-10-28T06:36:05.354Z,19.63
2022-10-28T06:38:34.087Z,15.48
2022-10-28T06:41:03.074Z,9.82
2022-10-28T06:43:31.720Z,10.07
2022-10-28T06:46:04.793Z,9.23
2022-10-28T06:48:35.118Z,4.50
2022-10-28T06:51:04.159Z,7.35
2022-10-28T06:53:32.942Z,3.85
2022-10-28T06:56:01.655Z,4.15
2022-10-28T06:58:30.374Z,3.55
2022-10-28T07:01:05.178Z,3.90
2022-10-28T07:03:34.119Z,6.90
2022-10-28T07:06:03.108Z,3.78
2022-10-28T07:08:32.135Z,3.83
2022-10-28T07:11:01.606Z,3.85
2022-10-28T07:13:30.770Z,3.90
2022-10-28T07:16:01.230Z,4.75
2022-10-28T07:18:30.953Z,3.80
2022-10-28T07:21:01.187Z,6.38
2022-10-28T07:23:33.635Z,3.80
2022-10-28T07:26:02.884Z,4.07
2022-10-28T07:28:32.220Z,4.68
2022-10-28T07:31:05.061Z,5.40
2022-10-28T07:33:33.779Z,7.88
2022-10-28T07:36:05.706Z,4.57
2022-10-28T07:38:35.086Z,5.35
2022-10-28T07:41:08.695Z,9.30
2022-10-28T07:43:40.974Z,5.15
2022-10-28T07:46:09.894Z,5.60
2022-10-28T07:48:39.318Z,4.38
2022-10-28T07:51:09.459Z,3.90
2022-10-28T07:53:38.267Z,3.85
2022-10-28T07:56:14.304Z,5.28
2022-10-28T07:58:44.366Z,2.80
2022-10-28T08:01:15.625Z,5.53
2022-10-28T08:03:44.521Z,3.05
2022-10-28T08:06:18.154Z,3.10
2022-10-28T08:08:49.210Z,3.92
2022-10-28T08:11:20.450Z,2.88
2022-10-28T08:13:49.526Z,3.42
2022-10-28T08:16:19.002Z,3.38
2022-10-28T08:18:48.463Z,2.80
2022-10-28T08:21:17.705Z,4.20
2022-10-28T08:23:49.310Z,8.80
2022-10-28T08:26:18.309Z,4.00
2022-10-28T08:28:47.127Z,3.70
2022-10-28T08:31:15.894Z,2.75
2022-10-28T08:33:46.129Z,2.78
2022-10-28T08:36:17.324Z,2.03
2022-10-28T08:38:48.439Z,3.08
2022-10-28T08:41:20.415Z,6.05
2022-10-28T08:44:26.549Z,3.92
2022-10-28T08:47:33.832Z,3.63
2022-10-28T08:50:15.713Z,7.30
2022-10-28T08:52:44.370Z,3.08
2022-10-28T08:55:24.375Z,3.92
2022-10-28T08:57:57.897Z,5.50
2022-10-28T09:00:32.868Z,6.32
2022-10-28T09:03:17.944Z,5.60
2022-10-28T09:05:50.610Z,5.75
2022-10-28T09:08:24.852Z,3.15
2022-10-28T09:11:37.768Z,6.43
2022-10-28T09:14:24.895Z,4.82
2022-10-28T09:19:47.998Z,3.55
2022-10-28T09:22:24.277Z,4.05
2022-10-28T09:25:02.433Z,3.53
2022-10-28T09:27:50.695Z,4.80
2022-10-28T09:30:25.216Z,4.35
2022-10-28T09:33:15.041Z,4.10
2022-10-28T09:35:48.162Z,9.85
2022-10-28T09:38:30.044Z,5.10
2022-10-28T09:41:11.544Z,3.95
2022-10-28T09:43:47.187Z,8.40
2022-10-28T09:46:19.375Z,4.00
2022-10-28T09:48:50.873Z,6.13
2022-10-28T09:51:44.104Z,4.82
2022-10-28T09:54:14.575Z,4.28
2022-10-28T09:56:43.349Z,10.77
2022-10-28T09:59:16.739Z,3.72
2022-10-28T10:01:47.351Z,10.90
2022-10-28T10:04:26.025Z,3.97
2022-10-28T10:07:19.430Z,5.65
2022-10-28T10:09:48.706Z,8.27
2022-10-28T10:12:17.920Z,8.43
2022-10-28T10:14:52.929Z,6.95
2022-10-28T10:17:41.411Z,5.82
2022-10-28T10:20:18.018Z,6.43
2022-10-28T10:25:22.143Z,4.55
2022-10-28T10:27:58.213Z,4.80
2022-10-28T10:30:34.844Z,7.20
2022-10-28T10:35:38.042Z,4.00
2022-10-28T10:38:08.711Z,4.50
2022-10-28T10:40:55.520Z,5.85
2022-10-28T10:43:31.505Z,6.38
2022-10-28T10:46:13.807Z,5.10
2022-10-28T10:48:43.422Z,5.53
2022-10-28T10:51:30.773Z,6.88
2022-10-28T10:54:01.712Z,6.90
2022-10-28T10:56:33.472Z,8.43
2022-10-28T10:59:26.319Z,8.73
2022-10-28T11:01:57.089Z,7.75
2022-10-28T11:04:30.966Z,4.78
2022-10-28T11:06:59.811Z,5.55
2022-10-28T11:09:36.038Z,4.03
2022-10-28T11:12:32.665Z,5.43
2022-10-28T11:15:25.313Z,4.68
2022-10-28T11:18:21.668Z,2.78
2022-10-28T11:21:06.461Z,4.47
2022-10-28T11:23:50.789Z,3.08
2022-10-28T11:26:23.389Z,3.78
2022-10-28T11:29:03.576Z,5.32
2022-10-28T11:32:09.756Z,4.05
2022-10-28T11:34:48.628Z,3.55
2022-10-28T11:37:50.654Z,2.22
2022-10-28T11:40:38.239Z,2.97
2022-10-28T11:43:29.681Z,0.73
2022-10-28T11:46:35.606Z,3.70
2022-10-28T11:49:25.755Z,1.25
2022-10-28T11:52:31.893Z,1.98
2022-10-28T11:55:15.507Z,1.50
2022-10-28T11:58:04.396Z,2.03
2022-10-28T12:00:55.001Z,1.00
2022-10-28T12:04:07.569Z,0.70
2022-10-28T12:06:54.572Z,1.80
2022-10-28T12:09:44.266Z,2.63
2022-10-28T12:12:47.200Z,1.88
2022-10-28T12:15:54.302Z,0.88
2022-10-28T12:18:46.011Z,3.65
2022-10-28T12:24:12.712Z,0.52
2022-10-28T12:26:45.801Z,1.10
2022-10-28T12:29:41.466Z,1.30
2022-10-28T12:32:19.248Z,2.67
2022-10-28T12:34:57.550Z,2.22
2022-10-28T12:37:32.711Z,4.30
2022-10-28T12:40:22.721Z,3.92
2022-10-28T12:43:17.484Z,1.95
2022-10-28T12:45:49.908Z,1.05
2022-10-28T12:48:25.571Z,9.65
2022-10-28T12:51:18.818Z,0.77
2022-10-28T12:54:03.438Z,0.90
2022-10-28T12:56:38.798Z,3.42
2022-10-28T12:59:31.768Z,2.08
2022-10-28T13:02:03.349Z,3.67
2022-10-28T13:04:32.368Z,1.15
2022-10-28T13:07:23.681Z,2.53
2022-10-28T13:13:24.543Z,2.25
2022-10-28T13:16:06.828Z,3.58
2022-10-28T13:19:08.890Z,2.30
2022-10-28T13:21:54.888Z,2.08
2022-10-28T13:25:04.892Z,3.13
2022-10-28T13:27:33.913Z,3.70
2022-10-28T13:30:04.577Z,2.08
2022-10-28T13:32:40.575Z,7.53
2022-10-28T13:35:30.690Z,6.57
2022-10-28T13:38:01.210Z,1.55
2022-10-28T13:40:33.104Z,3.42
2022-10-28T13:43:03.101Z,1.15
2022-10-28T13:45:52.872Z,5.22
2022-10-28T13:48:30.792Z,3.63
2022-10-28T13:51:12.128Z,2.90
2022-10-28T13:53:52.860Z,1.13
2022-10-28T13:56:30.901Z,2.28
2022-10-28T13:59:06.052Z,1.50
2022-10-28T14:01:56.739Z,2.05
2022-10-28T14:04:40.263Z,2.38
2022-10-28T14:07:11.909Z,3.13
2022-10-28T14:09:42.639Z,2.50
2022-10-28T14:12:40.095Z,4.25
2022-10-28T14:15:28.123Z,2.60
2022-10-28T14:18:09.909Z,1.98
2022-10-28T14:20:59.585Z,2.55
2022-10-28T14:23:28.634Z,1.60
2022-10-28T14:26:00.495Z,3.10
2022-10-28T14:28:32.458Z,3.17
2022-10-28T14:31:10.264Z,1.45
2022-10-28T14:33:44.802Z,4.40
2022-10-28T14:36:19.709Z,3.28
2022-10-28T14:38:54.809Z,4.22
2022-10-28T14:41:50.964Z,2.15
2022-10-28T14:44:37.844Z,3.47
2022-10-28T14:47:44.093Z,1.83
2022-10-28T14:50:15.519Z,4.50
2022-10-28T14:52:45.352Z,2.70
2022-10-28T14:55:40.854Z,2.42
2022-10-28T14:58:15.596Z,2.55
2022-10-28T15:01:12.776Z,3.33
2022-10-28T15:03:42.474Z,6.45
2022-10-28T15:06:45.163Z,1.70
2022-10-28T15:09:26.842Z,3.47
2022-10-28T15:12:06.505Z,4.03
2022-10-28T15:14:43.085Z,7.78
2022-10-28T15:17:17.864Z,3.05
2022-10-28T15:19:55.344Z,3.53
2022-10-28T15:22:28.935Z,4.38
2022-10-28T15:25:03.312Z,5.85
2022-10-28T15:27:34.582Z,2.08
2022-10-28T15:30:05.882Z,2.60
2022-10-28T15:32:36.531Z,2.45
2022-10-28T15:35:50.018Z,4.05
2022-10-28T15:38:49.880Z,3.53
2022-10-28T15:41:26.818Z,3.47
2022-10-28T15:44:04.009Z,4.07
2022-10-28T15:46:34.429Z,4.07
2022-10-28T15:49:03.925Z,2.63
2022-10-28T15:51:32.642Z,3.63
2022-10-28T15:54:13.070Z,3.38
2022-10-28T15:56:57.816Z,5.32
2022-10-28T15:59:27.480Z,4.65
2022-10-28T16:01:58.174Z,6.03
2022-10-28T16:04:26.862Z,2.40
2022-10-28T16:06:59.360Z,2.65
2022-10-28T16:09:35.629Z,3.05
2022-10-28T16:12:27.206Z,4.93
2022-10-28T16:15:02.836Z,4.47
2022-10-28T16:17:36.729Z,3.22
2022-10-28T16:20:18.947Z,3.65
2022-10-28T16:22:49.123Z,4.47
2022-10-28T16:25:23.849Z,3.53
2022-10-28T16:27:53.230Z,4.65
2022-10-28T16:32:52.129Z,3.13
2022-10-28T16:35:23.525Z,4.13
2022-10-28T16:37:55.441Z,3.22
2022-10-28T16:43:17.722Z,3.35
2022-10-28T16:45:47.995Z,2.90
2022-10-28T16:48:18.454Z,3.80
2022-10-28T16:50:53.277Z,3.15
2022-10-28T16:53:22.731Z,4.75
2022-10-28T16:55:52.251Z,6.47
2022-10-28T16:58:23.279Z,3.88
2022-10-28T17:00:55.993Z,3.35
2022-10-28T17:03:24.868Z,2.83
2022-10-28T17:05:53.535Z,3.38
2022-10-28T17:08:42.274Z,3.15
2022-10-28T17:11:15.829Z,5.65
2022-10-28T17:13:44.584Z,4.60
2022-10-28T17:16:13.710Z,3.08
2022-10-28T17:18:44.354Z,5.65
2022-10-28T17:21:13.079Z,2.85
2022-10-28T17:23:41.732Z,2.15
2022-10-28T17:26:11.047Z,3.22
2022-10-28T17:28:39.907Z,3.72
2022-10-28T17:31:09.826Z,4.68
2022-10-28T17:33:38.498Z,3.50
2022-10-28T17:36:09.310Z,3.25
2022-10-28T17:38:38.108Z,4.10
2022-10-28T17:41:06.888Z,3.05
2022-10-28T17:43:35.678Z,3.95
2022-10-28T17:46:08.666Z,2.53
2022-10-28T17:48:37.527Z,3.97
2022-10-28T17:51:06.242Z,3.58
2022-10-28T17:53:34.933Z,2.95
2022-10-28T17:56:06.538Z,4.95
2022-10-28T17:58:35.337Z,3.60
2022-10-28T18:01:07.623Z,3.15
2022-10-28T18:03:39.299Z,5.95
2022-10-28T18:06:11.653Z,3.03
2022-10-28T18:08:42.731Z,6.30
2022-10-28T18:11:14.236Z,2.95
2022-10-28T18:13:53.548Z,5.43
2022-10-28T18:16:25.024Z,5.50
2022-10-28T18:18:54.817Z,3.60
2022-10-28T18:21:27.542Z,3.85
2022-10-28T18:24:04.357Z,2.80
2022-10-28T18:29:06.162Z,5.00
2022-10-28T18:31:35.325Z,3.83
2022-10-28T18:34:05.095Z,8.15
2022-10-28T18:36:36.344Z,5.53
2022-10-28T18:39:07.778Z,7.70
2022-10-28T18:41:39.073Z,4.38
2022-10-28T18:44:10.658Z,5.35
2022-10-28T18:46:39.519Z,4.90
2022-10-28T18:49:08.306Z,4.60
2022-10-28T18:51:37.351Z,4.75
2022-10-28T18:54:06.095Z,4.05
2022-10-28T18:56:35.059Z,4.00
2022-10-28T18:59:05.768Z,4.72
2022-10-28T19:01:35.280Z,5.40
2022-10-28T19:04:06.136Z,3.97
2022-10-28T19:06:35.145Z,3.00
2022-10-28T19:09:05.390Z,3.30
2022-10-28T19:11:35.239Z,3.10
2022-10-28T19:14:06.518Z,3.65
2022-10-28T19:16:36.191Z,2.45
2022-10-28T19:19:06.602Z,5.32
2022-10-28T19:21:35.608Z,5.70
2022-10-28T19:24:05.967Z,3.22
2022-10-28T19:26:35.617Z,2.20
2022-10-28T19:29:06.247Z,2.85
2022-10-28T19:31:38.721Z,7.47
2022-10-28T19:34:07.554Z,4.53
2022-10-28T19:36:36.237Z,2.35
2022-10-28T19:39:05.073Z,2.03
2022-10-28T19:41:34.028Z,3.45
2022-10-28T19:44:04.254Z,2.25
2022-10-28T19:46:35.467Z,2.95
2022-10-28T19:49:06.958Z,3.35
2022-10-28T19:51:40.055Z,2.72
2022-10-28T19:54:12.666Z,2.72
2022-10-28T19:56:48.119Z,2.20
2022-10-28T19:59:17.641Z,2.83
2022-10-28T20:01:46.367Z,4.32
2022-10-28T20:04:15.236Z,5.13
2022-10-28T20:06:44.484Z,1.58
2022-10-28T20:09:13.331Z,4.10
2022-10-28T20:11:42.059Z,2.58
2022-10-28T20:14:13.198Z,8.63
2022-10-28T20:16:43.297Z,3.08
2022-10-28T20:19:12.962Z,5.55
2022-10-28T20:21:42.086Z,3.50
2022-10-28T20:24:10.751Z,5.03
2022-10-28T20:26:39.960Z,1.90
2022-10-28T20:29:10.438Z,2.15
2022-10-28T20:31:39.643Z,1.92
2022-10-28T20:34:08.924Z,2.92
2022-10-28T20:36:40.606Z,4.18
2022-10-28T20:39:18.127Z,4.45
2022-10-28T20:41:48.423Z,3.72
2022-10-28T20:44:17.490Z,2.80
2022-10-28T20:46:48.540Z,2.70
2022-10-28T20:49:17.311Z,3.85
2022-10-28T20:51:46.061Z,3.03
2022-10-28T20:54:14.813Z,3.85
2022-10-28T20:56:43.834Z,2.60
2022-10-28T20:59:12.510Z,3.42
2022-10-28T21:01:42.222Z,2.10
2022-10-28T21:04:12.401Z,2.10
2022-10-28T21:06:41.579Z,2.85
2022-10-28T21:09:10.302Z,2.50
2022-10-28T21:11:39.071Z,3.15
2022-10-28T21:14:07.801Z,2.92
2022-10-28T21:16:36.571Z,3.05
2022-10-28T21:19:05.205Z,2.80
2022-10-28T21:21:33.938Z,3.42
2022-10-28T21:24:02.759Z,1.70
2022-10-28T21:26:31.507Z,2.30
2022-10-28T21:29:00.139Z,1.92
2022-10-28T21:31:29.341Z,2.10
2022-10-28T21:34:00.751Z,1.77
2022-10-28T21:36:32.564Z,4.18
2022-10-28T21:39:01.203Z,2.28
2022-10-28T21:41:29.882Z,3.72
2022-10-28T21:43:58.584Z,1.95
2022-10-28T21:46:28.731Z,3.63
2022-10-28T21:48:57.512Z,2.63
2022-10-28T21:51:26.290Z,2.50
2022-10-28T21:53:54.942Z,2.55
2022-10-28T21:56:23.594Z,3.75
2022-10-28T21:58:52.478Z,3.58
2022-10-28T22:01:24.122Z,5.93
2022-10-28T22:03:55.369Z,5.97
2022-10-28T22:06:25.201Z,6.72
2022-10-28T22:08:57.127Z,4.03
2022-10-28T22:11:28.237Z,5.55
2022-10-28T22:14:02.509Z,2.78
2022-10-28T22:16:33.363Z,2.28
2022-10-28T22:19:05.845Z,7.95
2022-10-28T22:21:40.900Z,2.58
2022-10-28T22:24:10.222Z,2.05
2022-10-28T22:26:38.967Z,3.83
2022-10-28T22:29:07.702Z,2.22
2022-10-28T22:31:36.505Z,2.78
2022-10-28T22:34:06.370Z,5.18
2022-10-28T22:36:35.243Z,3.17
2022-10-28T22:39:03.963Z,4.20
2022-10-28T22:41:33.925Z,4.93
2022-10-28T22:44:03.728Z,2.78
2022-10-28T22:46:34.452Z,7.80
2022-10-28T22:49:04.093Z,2.30
2022-10-28T22:51:32.964Z,4.82
2022-10-28T22:54:01.644Z,4.50
2022-10-28T22:56:30.594Z,7.18
2022-10-28T22:59:01.117Z,16.60
2022-10-28T23:01:30.540Z,14.50
2022-10-28T23:04:01.710Z,9.40
2022-10-28T23:06:31.121Z,12.25
2022-10-28T23:09:00.273Z,8.85
2022-10-28T23:11:30.221Z,6.13
2022-10-28T23:13:59.080Z,4.90
2022-10-28T23:16:28.020Z,3.90
2022-10-28T23:18:56.975Z,4.60
2022-10-28T23:21:26.950Z,5.10
2022-10-28T23:24:00.757Z,3.28
2022-10-28T23:26:30.688Z,3.05
2022-10-28T23:29:00.953Z,2.38
2022-10-28T23:31:30.262Z,5.82
2022-10-28T23:33:59.988Z,3.28
2022-10-28T23:36:29.464Z,8.63
2022-10-28T23:38:58.763Z,19.25
2022-10-28T23:41:27.779Z,22.90
2022-10-28T23:43:56.600Z,30.52
2022-10-28T23:46:25.932Z,25.58
2022-10-28T23:48:54.900Z,26.40
2022-10-28T23:51:23.573Z,34.00
2022-10-28T23:53:52.281Z,16.08
2022-10-28T23:56:21.085Z,5.57
2022-10-28T23:58:49.835Z,4.50
